Time;durP1;ratioP1;P1;durP2;ratioP2;P2;SDS_P1;SDS_P2;PMS_P1;PMS_P2;Temp;Humidity;BMP_temperature;BMP_pressure;BME280_temperature;BME280_humidity;BME280_pressure;Samples;Min_cycle;Max_cycle;Signal;HPM_P1;HPM_P2
2023/06/09 00:01:49;;;;;;;8.80;8.00;;;19.40;68.70;;;;;;5073688;28;20450;-58
2023/06/09 00:04:17;;;;;;;8.30;7.50;;;19.40;69.00;;;;;;5073413;28;20470;-58
2023/06/09 00:06:44;;;;;;;8.07;7.27;;;19.40;69.50;;;;;;5073744;28;20447;-57
2023/06/09 00:09:10;;;;;;;10.33;8.50;;;19.40;69.70;;;;;;5074036;28;21055;-58
2023/06/09 00:11:37;;;;;;;8.50;7.80;;;19.40;70.80;;;;;;5074177;28;20447;-57
2023/06/09 00:14:04;;;;;;;8.97;8.17;;;19.40;70.40;;;;;;5073167;28;20475;-57
2023/06/09 00:16:33;;;;;;;9.47;8.67;;;19.40;70.90;;;;;;5073102;28;20546;-57
2023/06/09 00:19:02;;;;;;;9.10;8.30;;;19.40;71.30;;;;;;5073083;28;20447;-57
2023/06/09 00:21:29;;;;;;;9.53;8.73;;;19.40;71.60;;;;;;5073037;28;20829;-58
2023/06/09 00:23:56;;;;;;;8.80;8.00;;;19.40;72.00;;;;;;5073322;28;20446;-59
2023/06/09 00:26:23;;;;;;;8.77;8.07;;;19.50;72.40;;;;;;5073489;28;20439;-57
2023/06/09 00:28:50;;;;;;;13.80;8.33;;;19.50;72.70;;;;;;5078152;28;20439;-58
2023/06/09 00:31:17;;;;;;;9.03;8.33;;;19.50;73.00;;;;;;5077534;28;20446;-57
2023/06/09 00:33:45;;;;;;;9.87;8.97;;;19.50;73.10;;;;;;5077145;28;20449;-56
2023/06/09 00:36:12;;;;;;;11.60;8.90;;;19.50;73.30;;;;;;5076791;28;20487;-57
2023/06/09 00:38:39;;;;;;;10.07;9.00;;;19.50;73.50;;;;;;5077114;28;20438;-58
2023/06/09 00:41:05;;;;;;;9.53;8.53;;;19.50;73.70;;;;;;5077070;28;20451;-58
2023/06/09 00:43:32;;;;;;;9.80;9.00;;;19.50;73.80;;;;;;5077053;28;20449;-57
2023/06/09 00:46:01;;;;;;;9.50;8.80;;;19.50;73.90;;;;;;5076783;28;20553;-58
2023/06/09 00:48:28;;;;;;;9.70;8.90;;;19.50;74.10;;;;;;5076350;28;20447;-58
2023/06/09 00:50:57;;;;;;;8.90;8.00;;;19.50;74.20;;;;;;5076176;28;20458;-57
2023/06/09 00:53:26;;;;;;;9.70;8.70;;;19.50;74.40;;;;;;5076390;28;20454;-57
2023/06/09 00:55:53;;;;;;;10.07;9.17;;;19.50;74.60;;;;;;5076197;28;20536;-58
2023/06/09 00:58:20;;;;;;;10.00;9.13;;;19.50;74.70;;;;;;5076898;28;20466;-58
2023/06/09 01:00:47;;;;;;;9.73;8.80;;;19.50;75.10;;;;;;5076565;28;20445;-56
2023/06/09 01:03:14;;;;;;;9.43;8.53;;;19.50;75.20;;;;;;5076107;28;20445;-58
2023/06/09 01:05:44;;;;;;;10.00;9.00;;;19.50;75.60;;;;;;5076174;28;20489;-56
2023/06/09 01:08:22;;;;;;;8.67;7.87;;;19.50;75.80;;;;;;5076398;28;20446;-58
2023/06/09 01:10:59;;;;;;;10.17;8.90;;;19.50;76.10;;;;;;5076227;28;20435;-56
2023/06/09 01:13:33;;;;;;;9.73;8.80;;;19.40;76.40;;;;;;5076341;28;20797;-57
2023/06/09 01:16:05;;;;;;;13.73;8.73;;;19.40;76.80;;;;;;5076223;28;20464;-57
2023/06/09 01:18:35;;;;;;;9.23;8.40;;;19.40;77.10;;;;;;5076049;28;20438;-57
2023/06/09 01:21:12;;;;;;;9.93;9.03;;;19.40;77.40;;;;;;5075897;28;20458;-57
2023/06/09 01:23:51;;;;;;;9.53;8.67;;;19.40;77.60;;;;;;5077038;28;20431;-56
2023/06/09 01:26:20;;;;;;;9.80;8.90;;;19.40;78.00;;;;;;5076041;28;20467;-56
2023/06/09 01:28:48;;;;;;;9.43;8.63;;;19.40;78.40;;;;;;5076541;28;20443;-57
2023/06/09 01:31:16;;;;;;;8.87;7.97;;;19.40;78.80;;;;;;5075910;28;20455;-58
2023/06/09 01:33:44;;;;;;;10.07;9.07;;;19.30;79.10;;;;;;5075535;28;20998;-57
2023/06/09 01:36:12;;;;;;;9.70;8.90;;;19.30;79.50;;;;;;5075302;28;20471;-57
2023/06/09 01:38:40;;;;;;;9.60;8.80;;;19.30;79.90;;;;;;5075221;28;20538;-58
2023/06/09 01:41:06;;;;;;;9.77;8.97;;;19.30;80.30;;;;;;5075414;28;20813;-57
2023/06/09 01:43:35;;;;;;;10.97;9.80;;;19.20;80.70;;;;;;5075553;28;20442;-57
2023/06/09 01:46:01;;;;;;;9.90;9.10;;;19.20;81.20;;;;;;5077042;28;20467;-58
2023/06/09 01:48:43;;;;;;;9.90;9.00;;;19.20;81.90;;;;;;5076975;28;20443;-59
2023/06/09 01:51:19;;;;;;;10.80;9.90;;;19.20;82.40;;;;;;5075425;28;20498;-58
2023/06/09 01:53:54;;;;;;;11.70;10.70;;;19.20;83.00;;;;;;5075645;28;20475;-58
2023/06/09 01:56:25;;;;;;;10.37;9.40;;;19.10;83.50;;;;;;5075578;28;20427;-57
2023/06/09 01:58:57;;;;;;;9.80;9.10;;;19.10;84.20;;;;;;5075647;28;20485;-58
2023/06/09 02:01:26;;;;;;;10.73;9.73;;;19.10;84.80;;;;;;5075867;28;20443;-56
2023/06/09 02:03:55;;;;;;;10.27;9.47;;;19.10;85.30;;;;;;5076281;28;20447;-58
2023/06/09 02:06:22;;;;;;;11.57;10.47;;;19.00;85.80;;;;;;5075032;28;20554;-58
2023/06/09 02:08:50;;;;;;;10.27;9.37;;;19.00;86.50;;;;;;5075512;28;20439;-58
2023/06/09 02:11:17;;;;;;;11.33;10.20;;;19.00;87.00;;;;;;5076027;28;20534;-57
2023/06/09 02:13:44;;;;;;;10.83;9.83;;;19.00;87.60;;;;;;5075159;28;21024;-57
2023/06/09 02:16:12;;;;;;;10.60;9.70;;;19.00;88.10;;;;;;5075434;28;20485;-57
2023/06/09 02:18:38;;;;;;;10.63;9.60;;;19.00;88.80;;;;;;5075259;28;20479;-56
2023/06/09 02:21:05;;;;;;;11.83;10.47;;;19.00;89.40;;;;;;5074873;28;20450;-57
2023/06/09 02:23:32;;;;;;;11.73;10.63;;;19.00;90.00;;;;;;5074880;28;20447;-57
2023/06/09 02:25:59;;;;;;;12.30;11.20;;;18.90;90.30;;;;;;5074907;28;20459;-57
2023/06/09 02:28:26;;;;;;;11.90;10.90;;;18.90;90.60;;;;;;5075188;28;20450;-57
2023/06/09 02:30:53;;;;;;;11.30;10.40;;;18.90;90.80;;;;;;5075619;28;20440;-57
2023/06/09 02:33:24;;;;;;;12.30;11.20;;;18.90;91.10;;;;;;5074793;28;20484;-57
2023/06/09 02:35:51;;;;;;;12.63;11.37;;;18.80;91.40;;;;;;5074958;28;20482;-57
2023/06/09 02:38:17;;;;;;;11.20;10.30;;;18.80;91.80;;;;;;5074300;28;20901;-57
2023/06/09 02:40:47;;;;;;;12.20;11.00;;;18.80;92.00;;;;;;5074260;28;20956;-56
2023/06/09 02:43:13;;;;;;;12.10;11.00;;;18.80;92.30;;;;;;5074628;28;20447;-56
2023/06/09 02:45:40;;;;;;;11.70;10.60;;;18.80;92.60;;;;;;5075537;28;20467;-58
2023/06/09 02:48:07;;;;;;;12.10;11.10;;;18.80;92.80;;;;;;5076730;28;20937;-57
2023/06/09 02:50:36;;;;;;;12.40;11.30;;;18.70;93.10;;;;;;5076432;28;20450;-57
2023/06/09 02:53:02;;;;;;;12.40;11.40;;;18.70;93.30;;;;;;5075795;28;20461;-57
2023/06/09 02:55:32;;;;;;;11.33;10.43;;;18.70;93.70;;;;;;5075873;28;20505;-58
2023/06/09 02:57:59;;;;;;;13.30;11.90;;;18.70;93.90;;;;;;5075371;28;20988;-57
2023/06/09 03:00:25;;;;;;;12.80;11.70;;;18.70;94.30;;;;;;5074682;28;20450;-57
2023/06/09 03:02:52;;;;;;;13.17;12.07;;;18.60;94.50;;;;;;5074676;28;20452;-57
2023/06/09 03:05:20;;;;;;;12.70;11.47;;;18.60;94.70;;;;;;5074363;28;20774;-58
2023/06/09 03:07:49;;;;;;;13.27;11.97;;;18.60;95.00;;;;;;5074545;28;20444;-58
2023/06/09 03:10:16;;;;;;;13.73;12.40;;;18.60;95.30;;;;;;5075419;28;20897;-57
2023/06/09 03:12:43;;;;;;;13.40;12.20;;;18.60;95.50;;;;;;5074835;28;20435;-57
2023/06/09 03:15:10;;;;;;;12.50;11.50;;;18.60;95.70;;;;;;5074564;28;20470;-58
2023/06/09 03:17:37;;;;;;;13.47;12.10;;;18.50;95.80;;;;;;5074315;28;20483;-58
2023/06/09 03:20:06;;;;;;;13.60;12.03;;;18.50;96.00;;;;;;5074982;28;20435;-57
2023/06/09 03:22:33;;;;;;;12.40;11.40;;;18.50;96.20;;;;;;5074106;28;20455;-57
2023/06/09 03:25:02;;;;;;;12.63;11.53;;;18.50;96.20;;;;;;5073629;28;20972;-57
2023/06/09 03:27:29;;;;;;;13.30;12.03;;;18.50;96.30;;;;;;5073637;28;20806;-57
2023/06/09 03:29:56;;;;;;;13.10;11.20;;;18.50;96.40;;;;;;5074666;28;20448;-57
2023/06/09 03:32:23;;;;;;;12.73;11.60;;;18.60;96.40;;;;;;5074153;28;20831;-58
2023/06/09 03:34:50;;;;;;;13.07;11.80;;;18.60;96.50;;;;;;5093284;22;20502;-55
2023/06/09 03:37:16;;;;;;;12.50;11.40;;;18.60;96.50;;;;;;5053183;28;20484;-55
2023/06/09 03:39:43;;;;;;;13.03;11.93;;;18.60;96.60;;;;;;5053174;28;20443;-56
2023/06/09 03:42:11;;;;;;;12.90;11.80;;;18.60;96.60;;;;;;5053104;28;20552;-57
2023/06/09 03:44:38;;;;;;;13.50;11.70;;;18.60;96.60;;;;;;5053206;28;20487;-56
2023/06/09 03:47:06;;;;;;;13.77;12.37;;;18.60;96.60;;;;;;5053143;28;20837;-56
2023/06/09 03:49:32;;;;;;;13.23;12.03;;;18.60;96.60;;;;;;5053217;28;20531;-56
2023/06/09 03:52:00;;;;;;;13.40;12.03;;;18.60;96.60;;;;;;5053011;28;20444;-56
2023/06/09 03:54:26;;;;;;;13.30;12.10;;;18.60;96.70;;;;;;5053319;28;20444;-57
2023/06/09 03:56:54;;;;;;;14.73;13.20;;;18.60;96.60;;;;;;5052918;28;20444;-56
2023/06/09 03:59:22;;;;;;;13.10;11.90;;;18.60;96.50;;;;;;5052971;28;20777;-56
2023/06/09 04:01:49;;;;;;;13.83;12.50;;;18.60;96.40;;;;;;5052756;28;20444;-56
2023/06/09 04:04:16;;;;;;;13.00;11.77;;;18.60;96.30;;;;;;5053211;28;20480;-56
2023/06/09 04:06:45;;;;;;;13.13;12.00;;;18.60;96.20;;;;;;5052852;28;20448;-56
2023/06/09 04:11:50;;;;;;;12.30;11.30;;;18.60;95.60;;;;;;5091138;28;21020;-56
2023/06/09 04:14:17;;;;;;;13.17;11.97;;;18.70;95.70;;;;;;5090497;28;20435;-57
2023/06/09 04:16:45;;;;;;;14.00;12.60;;;18.60;95.40;;;;;;5090620;28;20442;-56
2023/06/09 04:19:11;;;;;;;13.17;11.60;;;18.70;95.30;;;;;;5091665;28;20443;-56
2023/06/09 04:21:38;;;;;;;12.60;11.50;;;18.70;95.00;;;;;;5090686;28;20438;-56
2023/06/09 04:24:08;;;;;;;11.80;10.80;;;18.70;94.70;;;;;;5090903;28;20438;-55
2023/06/09 04:26:39;;;;;;;12.50;11.40;;;18.70;94.40;;;;;;5090592;28;20984;-55
2023/06/09 04:29:09;;;;;;;11.90;10.70;;;18.70;94.00;;;;;;5090729;28;20434;-55
2023/06/09 04:31:37;;;;;;;12.37;11.27;;;18.70;93.30;;;;;;5090986;28;20492;-55
2023/06/09 04:34:10;;;;;;;11.70;10.50;;;18.70;93.00;;;;;;5090450;28;20464;-56
2023/06/09 04:36:38;;;;;;;12.47;10.80;;;18.80;92.70;;;;;;5090874;28;20523;-56
2023/06/09 04:39:05;;;;;;;12.03;10.83;;;18.80;92.40;;;;;;5090804;28;20968;-56
2023/06/09 04:41:32;;;;;;;12.73;10.47;;;18.80;92.10;;;;;;5090462;28;20533;-56
2023/06/09 04:44:03;;;;;;;11.40;10.30;;;18.80;91.90;;;;;;5090664;28;20464;-56
2023/06/09 04:46:37;;;;;;;12.40;11.30;;;18.80;91.60;;;;;;5090478;28;20463;-57
2023/06/09 04:49:08;;;;;;;12.10;10.90;;;18.80;91.50;;;;;;5091687;28;20546;-57
2023/06/09 04:51:41;;;;;;;11.80;10.50;;;18.90;91.30;;;;;;5091684;28;20459;-56
2023/06/09 04:54:08;;;;;;;11.00;9.90;;;18.90;91.20;;;;;;5090336;28;20423;-56
2023/06/09 04:56:36;;;;;;;12.23;11.13;;;18.90;91.10;;;;;;5090374;28;20463;-56
2023/06/09 04:59:04;;;;;;;12.47;11.27;;;18.90;91.00;;;;;;5090039;28;20459;-56
2023/06/09 05:01:33;;;;;;;11.83;10.73;;;19.00;91.00;;;;;;5089536;28;20770;-56
2023/06/09 05:04:00;;;;;;;12.00;10.90;;;19.00;90.90;;;;;;5089902;28;20451;-56
2023/06/09 05:06:27;;;;;;;12.50;11.50;;;19.00;90.80;;;;;;5089886;28;20462;-56
2023/06/09 05:08:55;;;;;;;12.80;11.60;;;19.10;90.80;;;;;;5092609;28;20473;-56
2023/06/09 05:11:22;;;;;;;12.10;10.97;;;19.00;90.60;;;;;;5094319;28;21014;-56
2023/06/09 05:13:49;;;;;;;13.10;11.80;;;19.00;90.60;;;;;;5092492;28;20446;-56
2023/06/09 05:16:16;;;;;;;11.93;10.83;;;19.00;90.60;;;;;;5089524;28;20464;-55
2023/06/09 05:18:44;;;;;;;13.57;10.90;;;19.00;90.60;;;;;;5089538;28;20447;-56
2023/06/09 05:21:12;;;;;;;12.20;11.00;;;19.00;90.50;;;;;;5087959;28;20457;-56
2023/06/09 05:23:38;;;;;;;11.87;10.77;;;19.00;90.40;;;;;;5075788;28;20487;-54
2023/06/09 05:26:05;;;;;;;12.30;11.10;;;19.00;90.20;;;;;;5075469;28;20832;-56
2023/06/09 05:28:32;;;;;;;13.93;11.17;;;19.00;90.00;;;;;;5075610;28;20948;-56
2023/06/09 05:30:59;;;;;;;12.20;10.80;;;19.00;89.50;;;;;;5075717;28;20566;-56
2023/06/09 05:33:26;;;;;;;11.37;10.17;;;19.00;89.10;;;;;;5075743;28;20447;-56
2023/06/09 05:35:54;;;;;;;13.03;11.67;;;19.00;88.90;;;;;;5075799;28;20577;-57
2023/06/09 05:38:23;;;;;;;14.70;11.67;;;19.10;88.60;;;;;;5075641;28;20450;-57
2023/06/09 05:40:49;;;;;;;12.10;10.97;;;19.10;88.40;;;;;;5076068;28;20443;-56
2023/06/09 05:43:16;;;;;;;10.77;9.70;;;19.10;87.90;;;;;;5075860;28;20959;-56
2023/06/09 05:45:43;;;;;;;12.10;10.77;;;19.10;87.40;;;;;;5074955;28;20467;-56
2023/06/09 05:48:10;;;;;;;11.03;10.13;;;19.10;86.80;;;;;;5075358;28;20451;-55
2023/06/09 05:50:37;;;;;;;11.40;10.10;;;19.10;86.50;;;;;;5075214;28;20566;-55
2023/06/09 05:53:05;;;;;;;14.67;10.33;;;19.10;85.70;;;;;;5075024;28;20817;-56
2023/06/09 05:55:32;;;;;;;12.17;10.23;;;19.00;85.00;;;;;;5075417;28;20459;-56
2023/06/09 05:58:00;;;;;;;12.07;10.83;;;19.00;84.60;;;;;;5074855;28;20452;-56
2023/06/09 06:00:29;;;;;;;11.43;10.13;;;19.00;84.20;;;;;;5075109;28;20443;-55
2023/06/09 06:02:56;;;;;;;9.43;8.53;;;18.90;83.80;;;;;;5074940;28;20473;-56
2023/06/09 06:05:23;;;;;;;12.20;9.93;;;19.00;83.50;;;;;;5074751;28;21003;-56
2023/06/09 06:07:49;;;;;;;10.93;9.83;;;19.00;83.10;;;;;;5075115;28;20449;-58
2023/06/09 06:10:18;;;;;;;12.50;9.23;;;19.10;83.30;;;;;;5074718;28;20494;-57
2023/06/09 06:12:45;;;;;;;10.37;9.43;;;19.20;82.10;;;;;;5075018;28;20447;-58
2023/06/09 06:15:12;;;;;;;11.50;10.10;;;19.30;81.20;;;;;;5076026;28;21027;-57
2023/06/09 06:17:38;;;;;;;12.10;9.67;;;19.30;80.50;;;;;;5074961;28;20447;-57
2023/06/09 06:20:06;;;;;;;10.00;8.93;;;19.40;79.80;;;;;;5074896;28;20450;-57
2023/06/09 06:22:33;;;;;;;11.17;10.07;;;19.40;79.10;;;;;;5074736;28;20450;-56
2023/06/09 06:25:00;;;;;;;11.00;9.47;;;19.50;78.40;;;;;;5075497;28;20459;-56
2023/06/09 06:27:28;;;;;;;11.70;9.27;;;19.50;77.70;;;;;;5075413;28;20451;-58
2023/06/09 06:29:55;;;;;;;12.37;8.80;;;19.50;77.00;;;;;;5075529;28;20439;-56
2023/06/09 06:32:22;;;;;;;10.00;8.77;;;19.50;76.60;;;;;;5075680;28;20842;-56
2023/06/09 06:34:48;;;;;;;10.13;9.23;;;19.60;75.90;;;;;;5077112;28;20471;-57
2023/06/09 06:37:15;;;;;;;10.87;9.77;;;19.60;75.20;;;;;;5075939;28;20540;-57
2023/06/09 06:39:42;;;;;;;10.37;9.33;;;19.70;74.70;;;;;;5075224;28;20527;-57
2023/06/09 06:42:10;;;;;;;12.27;9.37;;;19.70;73.80;;;;;;5075247;28;20446;-56
2023/06/09 06:44:38;;;;;;;11.60;9.90;;;19.80;73.10;;;;;;5074538;28;20494;-57
2023/06/09 06:47:06;;;;;;;10.27;9.30;;;19.90;72.30;;;;;;5075173;28;20505;-58
2023/06/09 06:49:33;;;;;;;9.57;8.63;;;20.10;71.80;;;;;;5074829;28;20450;-57
2023/06/09 06:51:59;;;;;;;9.30;8.27;;;20.20;71.00;;;;;;5074690;28;20481;-57
2023/06/09 06:54:26;;;;;;;9.87;8.63;;;20.30;69.90;;;;;;5074422;28;20444;-56
2023/06/09 06:56:53;;;;;;;8.53;7.73;;;20.30;69.10;;;;;;5074194;28;20444;-59
2023/06/09 06:59:20;;;;;;;9.57;8.60;;;20.40;68.60;;;;;;5074276;28;20447;-57
2023/06/09 07:01:49;;;;;;;10.70;8.60;;;20.40;67.90;;;;;;5073927;28;20436;-57
2023/06/09 07:04:16;;;;;;;9.10;8.30;;;20.40;67.90;;;;;;5074036;28;20446;-56
2023/06/09 07:06:43;;;;;;;10.10;8.00;;;20.40;66.90;;;;;;5074271;28;20454;-56
2023/06/09 07:09:09;;;;;;;9.17;8.27;;;20.40;66.50;;;;;;5074203;28;20452;-56
2023/06/09 07:11:42;;;;;;;10.50;8.60;;;20.40;65.80;;;;;;5075431;28;20489;-56
2023/06/09 07:14:09;;;;;;;10.07;7.90;;;20.40;65.60;;;;;;5074448;28;20447;-57
2023/06/09 07:16:35;;;;;;;8.80;8.00;;;20.60;65.20;;;;;;5073573;28;20455;-55
2023/06/09 07:19:04;;;;;;;9.63;8.00;;;20.80;64.50;;;;;;5073571;28;20447;-57
2023/06/09 07:21:32;;;;;;;13.17;8.43;;;21.00;63.60;;;;;;5073198;28;20444;-56
2023/06/09 07:23:59;;;;;;;9.00;7.93;;;21.30;62.70;;;;;;5073351;28;20543;-57
2023/06/09 07:26:26;;;;;;;12.47;7.67;;;21.50;61.50;;;;;;5073187;28;20465;-56
2023/06/09 07:28:52;;;;;;;21.67;8.40;;;21.70;60.60;;;;;;5072901;28;20822;-57
2023/06/09 07:31:19;;;;;;;8.23;7.03;;;21.90;59.90;;;;;;5073054;28;20477;-56
2023/06/09 07:33:46;;;;;;;14.30;8.57;;;22.20;59.30;;;;;;5073542;28;20442;-56
2023/06/09 07:36:14;;;;;;;12.07;8.13;;;22.40;58.40;;;;;;5073277;28;20573;-56
2023/06/09 07:38:43;;;;;;;11.57;7.60;;;22.50;57.70;;;;;;5073006;28;20442;-57
2023/06/09 07:41:10;;;;;;;10.97;7.60;;;22.60;57.20;;;;;;5073161;28;20446;-57
2023/06/09 07:43:37;;;;;;;11.70;7.70;;;22.70;56.90;;;;;;5072952;28;20960;-57
2023/06/09 07:46:03;;;;;;;10.70;7.63;;;22.80;56.40;;;;;;5072818;28;20980;-57
2023/06/09 07:48:30;;;;;;;20.67;7.77;;;23.00;56.00;;;;;;5073588;28;20443;-56
2023/06/09 07:50:57;;;;;;;9.63;8.20;;;23.20;55.70;;;;;;5073018;28;20507;-58
2023/06/09 07:53:25;;;;;;;13.03;7.50;;;23.40;55.00;;;;;;5073157;28;20456;-57
2023/06/09 07:55:52;;;;;;;10.20;7.70;;;23.50;54.70;;;;;;5072859;28;20473;-55
2023/06/09 07:58:19;;;;;;;11.63;7.10;;;23.60;54.50;;;;;;5072808;28;20450;-58
2023/06/09 08:00:46;;;;;;;11.30;8.00;;;23.70;54.20;;;;;;5072659;28;20447;-56
2023/06/09 08:03:13;;;;;;;10.60;8.40;;;23.90;54.00;;;;;;5072752;28;20459;-57
2023/06/09 08:05:40;;;;;;;8.10;7.13;;;24.00;53.70;;;;;;5072712;28;20465;-57
2023/06/09 08:08:07;;;;;;;10.20;8.40;;;24.10;53.50;;;;;;5072786;28;20445;-58
2023/06/09 08:10:36;;;;;;;22.73;9.40;;;24.10;53.40;;;;;;5072551;28;20457;-57
2023/06/09 08:13:02;;;;;;;10.43;8.10;;;24.10;53.30;;;;;;5073386;28;20452;-57
2023/06/09 08:15:30;;;;;;;10.60;8.50;;;24.20;53.30;;;;;;5073290;28;20469;-56
2023/06/09 08:17:57;;;;;;;11.43;7.47;;;24.30;53.20;;;;;;5073329;28;20454;-56
2023/06/09 08:20:24;;;;;;;12.17;9.23;;;24.40;52.90;;;;;;5073256;28;20450;-56
2023/06/09 08:22:50;;;;;;;11.50;7.97;;;24.40;52.80;;;;;;5073108;28;20444;-54
2023/06/09 08:25:17;;;;;;;14.43;7.90;;;24.40;52.70;;;;;;5072735;28;20556;-56
2023/06/09 08:27:46;;;;;;;12.40;7.33;;;24.20;52.70;;;;;;5073133;28;20453;-57
2023/06/09 08:30:13;;;;;;;10.50;7.63;;;24.20;53.00;;;;;;5072529;28;20450;-57
2023/06/09 08:32:40;;;;;;;13.60;8.60;;;24.40;53.00;;;;;;5072549;28;20854;-56
2023/06/09 08:35:07;;;;;;;13.20;8.07;;;24.50;52.60;;;;;;5072825;28;20536;-55
2023/06/09 08:37:35;;;;;;;10.17;8.07;;;24.50;53.00;;;;;;5071866;28;20832;-56
2023/06/09 08:40:04;;;;;;;11.60;7.57;;;24.50;52.30;;;;;;5072291;28;20458;-56
2023/06/09 08:42:32;;;;;;;12.17;7.70;;;24.60;52.20;;;;;;5072202;28;20454;-55
2023/06/09 08:45:03;;;;;;;10.00;7.70;;;24.70;52.00;;;;;;5072707;28;20467;-56
2023/06/09 08:47:31;;;;;;;12.30;9.13;;;25.10;51.70;;;;;;5073148;28;20428;-56
2023/06/09 08:49:59;;;;;;;12.10;7.20;;;25.40;51.10;;;;;;5073389;28;20475;-57
2023/06/09 08:52:26;;;;;;;10.17;7.47;;;25.60;50.30;;;;;;5072774;28;20515;-55
2023/06/09 08:54:54;;;;;;;9.67;7.33;;;25.70;50.00;;;;;;5072685;28;20473;-56
2023/06/09 08:57:21;;;;;;;8.83;7.63;;;25.60;49.80;;;;;;5073812;28;20946;-56
2023/06/09 08:59:50;;;;;;;11.37;7.43;;;25.70;49.80;;;;;;5076965;28;20444;-57
2023/06/09 09:02:18;;;;;;;9.30;7.70;;;25.80;49.60;;;;;;5076320;28;20435;-58
2023/06/09 09:04:46;;;;;;;10.10;8.00;;;25.90;49.30;;;;;;5076391;28;20470;-56
2023/06/09 09:07:14;;;;;;;9.60;7.37;;;26.10;49.00;;;;;;5075409;28;20566;-57
2023/06/09 09:09:41;;;;;;;10.57;7.80;;;26.30;49.00;;;;;;5075902;28;20446;-57
2023/06/09 09:12:12;;;;;;;8.63;7.57;;;26.60;48.50;;;;;;5075536;28;21018;-58
2023/06/09 09:14:41;;;;;;;12.73;7.83;;;26.90;47.70;;;;;;5075933;28;20466;-57
2023/06/09 09:17:11;;;;;;;10.50;6.97;;;27.20;47.30;;;;;;5075960;28;20484;-56
2023/06/09 09:19:45;;;;;;;9.67;7.00;;;27.30;46.90;;;;;;5075850;28;20997;-57
2023/06/09 09:22:12;;;;;;;10.93;7.27;;;27.60;46.50;;;;;;5076319;28;20433;-56
2023/06/09 09:24:44;;;;;;;7.40;6.60;;;27.70;46.30;;;;;;5075952;28;20459;-57
2023/06/09 09:27:17;;;;;;;12.37;7.80;;;27.90;46.10;;;;;;5076187;28;20439;-57
2023/06/09 09:29:46;;;;;;;9.80;7.83;;;28.10;45.70;;;;;;5075845;28;20442;-58
2023/06/09 09:32:13;;;;;;;13.20;7.17;;;28.30;45.30;;;;;;5075876;28;20507;-58
2023/06/09 09:34:44;;;;;;;9.10;7.10;;;28.40;45.00;;;;;;5075523;28;20963;-58
2023/06/09 09:37:12;;;;;;;7.50;6.20;;;28.50;44.80;;;;;;5076054;28;20520;-56
2023/06/09 09:39:49;;;;;;;12.57;7.17;;;28.50;44.50;;;;;;5075418;28;20458;-58
2023/06/09 09:42:16;;;;;;;8.40;6.97;;;28.30;45.20;;;;;;5075518;28;20873;-57
2023/06/09 09:44:46;;;;;;;11.67;6.73;;;28.20;44.80;;;;;;5075415;28;20484;-56
2023/06/09 09:47:15;;;;;;;7.47;6.77;;;28.10;44.80;;;;;;5075065;28;20452;-58
2023/06/09 09:49:53;;;;;;;19.00;8.37;;;28.00;44.70;;;;;;5067718;22;20491;-58
2023/06/09 09:52:25;;;;;;;10.10;7.20;;;28.10;44.80;;;;;;5036905;28;20859;-59
2023/06/09 09:54:53;;;;;;;14.10;6.97;;;28.00;44.90;;;;;;5036326;28;20439;-57
2023/06/09 09:57:21;;;;;;;9.50;8.67;;;27.90;45.10;;;;;;5037683;28;20453;-57
2023/06/09 09:59:48;;;;;;;8.90;8.00;;;28.10;45.10;;;;;;5036816;28;20469;-58
2023/06/09 10:02:22;;;;;;;11.67;7.20;;;28.20;44.70;;;;;;5037444;28;20974;-57
2023/06/09 10:04:52;;;;;;;9.93;7.80;;;28.20;44.50;;;;;;5036456;28;20974;-58
2023/06/09 10:07:22;;;;;;;11.80;6.77;;;27.90;44.60;;;;;;5036000;28;20479;-57
2023/06/09 10:09:52;;;;;;;7.90;6.63;;;27.70;44.80;;;;;;5037679;28;20477;-58
2023/06/09 10:12:19;;;;;;;12.10;7.40;;;27.60;44.80;;;;;;5036764;28;20545;-58
2023/06/09 10:14:48;;;;;;;10.03;7.00;;;27.40;45.00;;;;;;5036797;28;20454;-58
2023/06/09 10:17:16;;;;;;;7.63;6.83;;;27.40;45.10;;;;;;5036284;28;20446;-58
2023/06/09 10:19:44;;;;;;;7.63;6.83;;;27.40;45.20;;;;;;5037167;28;20467;-57
2023/06/09 10:22:14;;;;;;;15.33;6.80;;;27.50;45.30;;;;;;5035308;28;20456;-57
2023/06/09 10:24:41;;;;;;;9.07;6.80;;;27.60;45.10;;;;;;5035566;28;20485;-57
2023/06/09 10:27:08;;;;;;;11.30;6.20;;;27.60;44.70;;;;;;5035473;28;20453;-58
2023/06/09 10:29:35;;;;;;;11.00;7.30;;;27.50;44.70;;;;;;5036094;28;20478;-56
2023/06/09 10:32:04;;;;;;;8.90;6.77;;;27.30;44.90;;;;;;5035969;28;20483;-57
2023/06/09 10:34:34;;;;;;;8.17;6.87;;;27.40;45.00;;;;;;5035658;28;20498;-58
2023/06/09 10:37:00;;;;;;;7.90;6.20;;;27.40;45.00;;;;;;5036220;28;20446;-57
2023/06/09 10:39:43;;;;;;;7.80;7.00;;;27.50;44.90;;;;;;5035119;28;20473;-58
2023/06/09 10:42:16;;;;;;;7.53;6.57;;;27.50;44.80;;;;;;5035727;28;20438;-57
2023/06/09 10:44:52;;;;;;;8.07;6.50;;;27.60;44.60;;;;;;5035598;28;20434;-58
2023/06/09 10:47:43;;;;;;;6.90;6.10;;;27.80;44.60;;;;;;5035391;28;20441;-59
2023/06/09 10:50:23;;;;;;;7.53;6.20;;;28.10;43.80;;;;;;5035056;28;20432;-58
2023/06/09 10:52:53;;;;;;;12.00;7.10;;;28.10;43.50;;;;;;5035002;28;20927;-58
2023/06/09 10:55:22;;;;;;;7.37;6.67;;;27.90;43.60;;;;;;5034999;28;20543;-57
2023/06/09 10:57:50;;;;;;;6.67;5.90;;;27.60;43.70;;;;;;5034774;28;20481;-59
2023/06/09 11:00:18;;;;;;;9.07;8.03;;;27.40;44.10;;;;;;5034802;28;20826;-57
2023/06/09 11:02:52;;;;;;;7.20;6.50;;;27.30;44.40;;;;;;5035436;28;20448;-60
2023/06/09 11:05:20;;;;;;;7.10;6.33;;;27.40;44.50;;;;;;5034458;28;20958;-57
2023/06/09 11:07:50;;;;;;;9.83;7.20;;;27.40;44.40;;;;;;5034982;28;20452;-59
2023/06/09 11:10:37;;;;;;;7.60;6.50;;;27.20;44.60;;;;;;5035232;28;20455;-58
2023/06/09 11:13:39;;;;;;;7.50;6.70;;;26.90;45.10;;;;;;5035247;28;20997;-58
2023/06/09 11:16:08;;;;;;;8.70;6.93;;;26.80;45.20;;;;;;5035535;28;20457;-59
2023/06/09 11:18:35;;;;;;;8.17;6.40;;;26.60;45.30;;;;;;5036023;28;20472;-59
2023/06/09 11:21:16;;;;;;;12.43;6.47;;;26.60;45.20;;;;;;5034777;28;20447;-58
2023/06/09 11:24:05;;;;;;;9.20;6.80;;;26.60;45.30;;;;;;5034987;28;20432;-58
2023/06/09 11:26:36;;;;;;;8.70;6.33;;;26.70;45.00;;;;;;5035811;28;20516;-57
2023/06/09 11:29:18;;;;;;;9.60;6.03;;;26.90;44.80;;;;;;5035543;28;20584;-57
2023/06/09 11:31:51;;;;;;;6.90;6.30;;;27.20;44.40;;;;;;5034599;28;20491;-57
2023/06/09 11:35:04;;;;;;;8.23;7.53;;;27.60;43.90;;;;;;5034877;28;20457;-58
2023/06/09 11:37:32;;;;;;;8.10;6.30;;;27.90;43.40;;;;;;5035023;28;20432;-58
2023/06/09 11:39:59;;;;;;;6.90;6.30;;;28.30;42.90;;;;;;5034702;28;20943;-57
2023/06/09 11:42:28;;;;;;;7.20;6.50;;;28.50;42.70;;;;;;5034700;28;20820;-58
2023/06/09 11:44:57;;;;;;;6.80;6.30;;;28.50;42.70;;;;;;5034632;28;20465;-60
2023/06/09 11:47:28;;;;;;;6.97;6.30;;;28.40;42.60;;;;;;5035893;28;21004;-58
2023/06/09 11:50:09;;;;;;;5.80;5.30;;;28.30;42.90;;;;;;5034607;28;20479;-58
2023/06/09 11:52:39;;;;;;;6.20;5.70;;;28.10;42.90;;;;;;5036036;28;20885;-59
2023/06/09 11:55:07;;;;;;;10.90;6.30;;;28.00;42.90;;;;;;5038445;28;20446;-60
2023/06/09 11:57:37;;;;;;;6.43;5.90;;;28.10;43.00;;;;;;5035129;28;20531;-59
2023/06/09 12:00:12;;;;;;;9.97;7.30;;;28.20;42.90;;;;;;5034945;28;20570;-59
2023/06/09 12:02:39;;;;;;;6.27;5.67;;;28.20;42.70;;;;;;5034978;28;20974;-60
2023/06/09 12:05:07;;;;;;;6.97;6.27;;;28.10;42.60;;;;;;5035190;28;20458;-60
2023/06/09 12:07:36;;;;;;;6.40;5.87;;;28.10;42.60;;;;;;5033964;28;20514;-59
2023/06/09 12:10:03;;;;;;;6.17;5.57;;;28.10;42.60;;;;;;5034023;28;20470;-57
2023/06/09 12:12:31;;;;;;;7.20;5.70;;;28.20;42.60;;;;;;5034449;28;20479;-59
2023/06/09 12:14:59;;;;;;;13.13;6.53;;;28.40;42.40;;;;;;5034575;28;20533;-58
2023/06/09 12:17:26;;;;;;;8.07;6.17;;;28.50;42.30;;;;;;5034643;28;20456;-59
2023/06/09 12:19:56;;;;;;;7.90;6.27;;;28.50;41.80;;;;;;5034292;28;20495;-59
2023/06/09 12:22:22;;;;;;;7.00;6.03;;;28.60;41.70;;;;;;5034495;28;20448;-57
2023/06/09 12:24:50;;;;;;;9.27;6.07;;;28.70;41.50;;;;;;5034989;28;20529;-58
2023/06/09 12:27:17;;;;;;;7.40;6.70;;;28.70;41.20;;;;;;5035771;28;20514;-59
2023/06/09 12:29:43;;;;;;;8.77;6.10;;;29.00;41.00;;;;;;5035536;28;20464;-59
2023/06/09 12:32:23;;;;;;;8.83;6.00;;;29.20;40.60;;;;;;5036987;28;20497;-59
2023/06/09 12:34:49;;;;;;;9.87;5.77;;;29.30;40.30;;;;;;5039741;28;20461;-58
2023/06/09 12:37:16;;;;;;;5.80;5.30;;;29.60;40.10;;;;;;5039413;28;20462;-59
2023/06/09 12:39:43;;;;;;;7.17;5.40;;;30.00;39.60;;;;;;5039446;28;20553;-59
2023/06/09 12:42:11;;;;;;;6.13;5.53;;;30.30;38.80;;;;;;5039385;28;20454;-58
2023/06/09 12:44:38;;;;;;;6.87;5.80;;;30.50;38.10;;;;;;5038488;28;20443;-57
2023/06/09 12:47:15;;;;;;;6.53;5.90;;;30.60;37.90;;;;;;5039112;28;20451;-59
2023/06/09 12:49:46;;;;;;;7.20;6.50;;;30.70;37.70;;;;;;5039274;28;20486;-58